METAR ET TAF INFORMATION
METAR FOR LFST
ADDS - METARS form results

(0551 UTC 07 March 2021)
Data provider http://aviationweather.gov/metar/data/
 
METAR text: LFST 070530Z AUTO 30002KT CAVOK M01/M04 Q1024 NOSIG
Conditions at: LFST (STRASBOURG/ENTZH, FR) observed 0530 UTC 07 March 2021
Temperature: -1.0°C (30°F)
Dewpoint: -4.0°C (25°F) [RH = 80%]
Pressure (altimeter): 30.24 inches Hg (1024.0 mb)
Winds: from the WNW (300 degrees) at 2 MPH (2 knots; 1.0 m/s)
Visibility: 6 or more miles (10+ km)
Ceiling: ceiling and visibility are OK
Clouds: unknown
Weather: no significant weather observed at this time

METAR text: LFST 070500Z AUTO 33001KT CAVOK M01/M04 Q1024 NOSIG
Conditions at: LFST (STRASBOURG/ENTZH, FR) observed 0500 UTC 07 March 2021
Temperature: -1.0°C (30°F)
Dewpoint: -4.0°C (25°F) [RH = 80%]
Pressure (altimeter): 30.24 inches Hg (1024.0 mb)
Winds: from the NNW (330 degrees) at 1 MPH (1 knots; 0.5 m/s)
Visibility: 6 or more miles (10+ km)
Ceiling: ceiling and visibility are OK
Clouds: unknown
Weather: no significant weather observed at this time

Forecast for: LFST (STRASBOURG/ENTZH, FR)
Text: TAF LFST 070500Z 0706/0806 01004KT CAVOK
Forecast period: 0600 UTC 07 March 2021 to 0600 UTC 08 March 2021
Forecast type: FROM: standard forecast or significant change
Winds: from the N (10 degrees) at 5 MPH (4 knots; 2.1 m/s)
Visibility: 6 or more miles (10+ km)
Ceiling: unknown
Clouds: missing
Weather: NSW  (no significant weather)
Text: TEMPO 0706/0724 BKN050
Forecast period: 0600 UTC 07 March 2021 to 0000 UTC 08 March 2021
Forecast type: TEMPORARY: The following changes expected for less than half the time period
Visibility: missing
Ceiling: 5000 feet AGL
Clouds: broken clouds at 5000 feet AGL
Weather: no significant weather forecast for this period

 AÉROPORT DE AÉROPORT

 INFORMATIONS DE PISTE
Piste 05 Longueur de la piste 7874 ft Largeur de la piste 148 ft
Élévation de la piste 503 ft Seuil de la piste déplacés 0 ft Runway heading 49
Piste 23 Longueur de la piste 7874 ft Largeur de la piste 148 ft
Élévation de la piste 491 ft Seuil de la piste déplacés 0 ft Runway heading 229

 AÉROPORT FRÉQUENCES
Type APP Nom STRASBOURG Féquence 119.45 MHZ
Type ATIS Nom STRASBOURG Féquence 126.925 MHZ
Type GND Nom STRASBOURG Féquence 121.8 MHZ
Type TWR Nom STRASBOURG Féquence 126.875 MHZ

 SIDA DE NAVIGATION
Type VOR-DME Nom Saverne Féquence 110450 KHZ
Type VOR-DME Nom Strasbourg Féquence 115600 KHZ



Powered by Virtual Airlines Manager [v2.6.2]